createdAt,value
2023-03-27T00:01:15.959Z,90.41
2023-03-27T00:03:49.340Z,90.47
2023-03-27T00:06:17.708Z,91.17
2023-03-27T00:08:46.840Z,91.12
2023-03-27T00:11:14.642Z,91.52
2023-03-27T00:13:49.146Z,92.03
2023-03-27T00:16:16.777Z,92.65
2023-03-27T00:18:44.804Z,92.64
2023-03-27T00:21:11.191Z,92.68
2023-03-27T00:23:37.632Z,93.31
2023-03-27T00:26:04.284Z,93.14
2023-03-27T00:28:30.986Z,93.49
2023-03-27T00:30:58.232Z,94.95
2023-03-27T00:33:25.737Z,94.96
2023-03-27T00:35:52.719Z,95.41
2023-03-27T00:38:19.323Z,95.74
2023-03-27T00:40:46.817Z,95.30
2023-03-27T00:43:34.997Z,95.12
2023-03-27T00:46:25.642Z,95.49
2023-03-27T00:48:52.835Z,96.00
2023-03-27T00:51:23.888Z,95.73
2023-03-27T00:53:51.396Z,96.20
2023-03-27T00:56:18.318Z,96.29
2023-03-27T00:58:50.144Z,96.63
2023-03-27T01:01:19.156Z,96.45
2023-03-27T01:03:47.373Z,96.85
2023-03-27T01:06:16.920Z,97.18
2023-03-27T01:08:45.706Z,97.52
2023-03-27T01:11:46.223Z,97.23
2023-03-27T01:14:49.792Z,96.96
2023-03-27T01:17:40.985Z,97.25
2023-03-27T01:20:20.227Z,97.30
2023-03-27T01:23:35.961Z,96.79
2023-03-27T01:26:16.625Z,97.31
2023-03-27T01:29:16.386Z,97.45
2023-03-27T01:32:33.306Z,96.00
2023-03-27T01:35:17.863Z,96.49
2023-03-27T01:38:03.983Z,96.06
2023-03-27T01:40:36.450Z,96.29
2023-03-27T01:43:11.166Z,96.63
2023-03-27T01:46:00.375Z,96.63
2023-03-27T01:48:39.184Z,96.95
2023-03-27T01:51:16.245Z,96.62
2023-03-27T01:53:49.354Z,96.92
2023-03-27T01:56:26.892Z,97.04
2023-03-27T01:59:03.949Z,96.97
2023-03-27T02:01:36.725Z,96.32
2023-03-27T02:04:07.492Z,96.41
2023-03-27T02:06:43.694Z,95.61
2023-03-27T02:09:29.777Z,95.64
2023-03-27T02:12:24.253Z,95.63
2023-03-27T02:14:56.220Z,96.06
2023-03-27T02:17:26.753Z,95.52
2023-03-27T02:20:17.816Z,95.48
2023-03-27T02:22:48.718Z,95.53
2023-03-27T02:25:36.991Z,96.49
2023-03-27T02:28:15.835Z,95.99
2023-03-27T02:31:05.259Z,95.64
2023-03-27T02:34:08.767Z,95.25
2023-03-27T02:37:02.314Z,95.71
2023-03-27T02:40:04.482Z,95.71
2023-03-27T02:42:45.901Z,95.74
2023-03-27T02:45:32.641Z,95.62
2023-03-27T02:48:19.732Z,95.77
2023-03-27T02:51:01.107Z,95.92
2023-03-27T02:53:29.997Z,95.29
2023-03-27T02:56:03.477Z,96.13
2023-03-27T02:58:50.084Z,95.20
2023-03-27T03:01:32.799Z,95.86
2023-03-27T03:04:24.335Z,95.85
2023-03-27T03:07:11.409Z,95.65
2023-03-27T03:09:40.321Z,95.14
2023-03-27T03:12:08.835Z,95.05
2023-03-27T03:14:44.079Z,94.83
2023-03-27T03:17:14.432Z,94.79
2023-03-27T03:19:41.099Z,94.46
2023-03-27T03:22:07.891Z,94.15
2023-03-27T03:24:35.866Z,94.23
2023-03-27T03:27:04.117Z,94.08
2023-03-27T03:29:36.956Z,94.02
2023-03-27T03:32:12.942Z,94.40
2023-03-27T03:34:41.815Z,94.10
2023-03-27T03:37:10.701Z,94.26
2023-03-27T03:39:37.465Z,94.05
2023-03-27T03:42:04.248Z,93.86
2023-03-27T03:44:30.782Z,93.95
2023-03-27T03:47:00.158Z,93.84
2023-03-27T03:49:26.991Z,93.93
2023-03-27T03:52:03.527Z,93.53
2023-03-27T03:54:30.528Z,94.19
2023-03-27T03:56:57.051Z,93.98
2023-03-27T03:59:23.888Z,93.87
2023-03-27T04:02:18.000Z,93.91
2023-03-27T04:04:46.549Z,93.70
2023-03-27T04:07:13.597Z,93.77
2023-03-27T04:09:44.864Z,94.04
2023-03-27T04:12:17.943Z,94.42
2023-03-27T04:14:57.092Z,94.06
2023-03-27T04:17:49.144Z,94.09
2023-03-27T04:20:17.131Z,94.17
2023-03-27T04:22:46.357Z,94.34
2023-03-27T04:25:15.846Z,94.22
2023-03-27T04:27:44.607Z,94.41
2023-03-27T04:30:28.457Z,95.20
2023-03-27T04:33:18.636Z,94.51
2023-03-27T04:36:07.829Z,94.95
2023-03-27T04:38:55.450Z,94.81
2023-03-27T04:41:21.960Z,94.53
2023-03-27T04:43:48.579Z,94.41
2023-03-27T04:46:15.076Z,94.04
2023-03-27T04:48:42.982Z,94.51
2023-03-27T04:51:20.392Z,93.62
2023-03-27T04:53:47.767Z,94.14
2023-03-27T04:56:14.804Z,94.01
2023-03-27T04:58:45.638Z,94.26
2023-03-27T05:01:15.446Z,93.95
2023-03-27T05:04:02.484Z,94.18
2023-03-27T05:07:00.187Z,93.60
2023-03-27T05:09:27.264Z,94.40
2023-03-27T05:11:53.988Z,94.15
2023-03-27T05:14:22.691Z,93.88
2023-03-27T05:16:50.573Z,94.18
2023-03-27T05:19:19.389Z,93.75
2023-03-27T05:21:52.494Z,93.76
2023-03-27T05:24:19.485Z,94.25
2023-03-27T05:26:46.939Z,94.20
2023-03-27T05:29:15.377Z,94.02
2023-03-27T05:31:44.781Z,93.88
2023-03-27T05:34:38.426Z,93.57
2023-03-27T05:37:10.487Z,94.21
2023-03-27T05:39:56.842Z,93.69
2023-03-27T05:42:23.338Z,93.83
2023-03-27T05:44:49.767Z,94.35
2023-03-27T05:47:16.264Z,93.83
2023-03-27T05:49:42.852Z,93.47
2023-03-27T05:52:11.939Z,93.78
2023-03-27T05:54:38.387Z,93.02
2023-03-27T05:57:09.567Z,92.64
2023-03-27T05:59:38.208Z,93.44
2023-03-27T06:02:21.015Z,93.57
2023-03-27T06:04:54.256Z,94.01
2023-03-27T06:07:42.561Z,94.06
2023-03-27T06:10:13.610Z,93.68
2023-03-27T06:12:45.234Z,94.66
2023-03-27T06:15:29.427Z,93.97
2023-03-27T06:18:16.119Z,94.00
2023-03-27T06:20:42.680Z,94.66
2023-03-27T06:23:09.504Z,94.39
2023-03-27T06:25:39.198Z,94.41
2023-03-27T06:28:09.097Z,94.30
2023-03-27T06:30:42.159Z,94.51
2023-03-27T06:33:31.590Z,94.42
2023-03-27T06:36:01.636Z,94.29
2023-03-27T06:38:33.506Z,94.10
2023-03-27T06:41:01.309Z,94.33
2023-03-27T06:43:47.733Z,93.76
2023-03-27T06:46:38.674Z,93.43
2023-03-27T06:49:37.440Z,93.84
2023-03-27T06:52:12.105Z,93.66
2023-03-27T06:54:38.495Z,93.83
2023-03-27T06:57:05.614Z,93.56
2023-03-27T06:59:44.563Z,93.04
2023-03-27T07:02:11.701Z,92.81
2023-03-27T07:05:04.213Z,92.75
2023-03-27T07:07:36.116Z,93.05
2023-03-27T07:10:02.732Z,92.85
2023-03-27T07:12:29.793Z,93.48
2023-03-27T07:14:56.309Z,91.86
2023-03-27T07:17:34.958Z,92.07
2023-03-27T07:20:12.533Z,91.98
2023-03-27T07:22:42.786Z,90.98
2023-03-27T07:25:14.804Z,91.38
2023-03-27T07:27:43.292Z,90.98
2023-03-27T07:30:13.066Z,91.26
2023-03-27T07:32:42.984Z,91.36
2023-03-27T07:35:11.850Z,90.81
2023-03-27T07:38:10.776Z,90.97
2023-03-27T07:40:57.565Z,90.08
2023-03-27T07:43:29.840Z,90.15
2023-03-27T07:45:57.735Z,89.88
2023-03-27T07:48:25.617Z,90.15
2023-03-27T07:50:56.112Z,90.25
2023-03-27T07:53:32.968Z,89.82
2023-03-27T07:56:08.771Z,89.48
2023-03-27T07:58:35.651Z,88.94
2023-03-27T08:01:03.239Z,88.63
2023-03-27T08:03:31.949Z,88.72
2023-03-27T08:06:00.389Z,88.15
2023-03-27T08:08:29.650Z,88.53
2023-03-27T08:10:58.497Z,88.57
2023-03-27T08:13:29.876Z,88.47
2023-03-27T08:16:13.308Z,87.48
2023-03-27T08:18:42.519Z,87.12
2023-03-27T08:21:10.589Z,86.93
2023-03-27T08:23:39.365Z,86.79
2023-03-27T08:26:26.528Z,87.05
2023-03-27T08:28:58.349Z,86.83
2023-03-27T08:31:29.165Z,86.56
2023-03-27T08:33:59.048Z,86.08
2023-03-27T08:36:28.839Z,85.71
2023-03-27T08:38:55.459Z,85.47
2023-03-27T08:41:38.526Z,85.44
2023-03-27T08:44:16.023Z,85.47
2023-03-27T08:47:02.849Z,84.99
2023-03-27T08:49:44.420Z,85.28
2023-03-27T08:52:25.204Z,85.38
2023-03-27T08:54:59.762Z,85.81
2023-03-27T08:57:35.447Z,85.91
2023-03-27T09:00:18.439Z,86.22
2023-03-27T09:02:53.977Z,86.01
2023-03-27T09:05:26.184Z,85.55
2023-03-27T09:08:22.172Z,83.93
2023-03-27T09:10:52.221Z,83.21
2023-03-27T09:13:51.024Z,82.47
2023-03-27T09:16:49.237Z,80.69
2023-03-27T09:19:45.433Z,80.26
2023-03-27T09:22:48.128Z,79.06
2023-03-27T09:25:32.481Z,79.27
2023-03-27T09:28:30.064Z,79.43
2023-03-27T09:31:20.279Z,78.85
2023-03-27T09:33:47.836Z,78.75
2023-03-27T09:36:14.444Z,77.13
2023-03-27T09:38:50.579Z,77.19
2023-03-27T09:41:25.571Z,76.56
2023-03-27T09:44:06.232Z,74.82
2023-03-27T09:46:40.557Z,75.06
2023-03-27T09:49:14.220Z,74.19
2023-03-27T09:51:53.356Z,74.35
2023-03-27T09:54:53.797Z,73.74
2023-03-27T09:57:34.841Z,73.17
2023-03-27T10:00:15.403Z,71.33
2023-03-27T10:02:42.038Z,71.04
2023-03-27T10:05:15.495Z,71.54
2023-03-27T10:07:44.481Z,70.77
2023-03-27T10:10:32.423Z,71.65
2023-03-27T10:13:20.787Z,71.51
2023-03-27T10:15:57.484Z,70.47
2023-03-27T10:18:34.400Z,68.30
2023-03-27T10:21:33.094Z,68.48
2023-03-27T10:24:33.080Z,66.90
2023-03-27T10:27:40.543Z,66.41
2023-03-27T10:30:35.325Z,65.54
2023-03-27T10:33:30.320Z,64.10
2023-03-27T10:36:11.858Z,64.42
2023-03-27T10:38:41.583Z,62.78
2023-03-27T10:41:28.355Z,61.74
2023-03-27T10:43:57.527Z,63.36
2023-03-27T10:46:27.799Z,62.69
2023-03-27T10:49:25.431Z,62.16
2023-03-27T10:52:16.962Z,62.32
2023-03-27T10:55:11.500Z,60.71
2023-03-27T10:57:39.440Z,60.85
2023-03-27T11:00:24.333Z,59.98
2023-03-27T11:03:06.537Z,59.39
2023-03-27T11:05:39.563Z,60.03
2023-03-27T11:08:21.566Z,59.87
2023-03-27T11:10:50.121Z,59.49
2023-03-27T11:13:30.877Z,59.33
2023-03-27T11:16:27.232Z,57.33
2023-03-27T11:19:31.770Z,57.85
2023-03-27T11:22:25.324Z,55.82
2023-03-27T11:25:08.240Z,56.63
2023-03-27T11:27:39.916Z,55.36
2023-03-27T11:30:16.169Z,55.97
2023-03-27T11:33:13.313Z,56.22
2023-03-27T11:35:48.574Z,56.28
2023-03-27T11:38:49.389Z,57.73
2023-03-27T11:41:16.318Z,57.91
2023-03-27T11:43:43.349Z,57.85
2023-03-27T11:46:47.417Z,56.92
2023-03-27T11:49:41.639Z,55.66
2023-03-27T11:52:38.219Z,52.61
2023-03-27T11:55:31.245Z,52.53
2023-03-27T11:58:14.000Z,52.97
2023-03-27T12:00:58.936Z,54.50
2023-03-27T12:03:48.831Z,55.68
2023-03-27T12:06:34.254Z,55.99
2023-03-27T12:09:19.723Z,56.62
2023-03-27T12:12:23.760Z,59.70
2023-03-27T12:15:01.284Z,61.37
2023-03-27T12:17:36.892Z,63.58
2023-03-27T12:20:58.718Z,64.89
2023-03-27T12:23:56.046Z,66.62
2023-03-27T12:27:23.283Z,68.08
2023-03-27T12:30:13.070Z,66.46
2023-03-27T12:33:03.477Z,65.16
2023-03-27T12:35:36.037Z,62.90
2023-03-27T12:38:07.506Z,60.71
2023-03-27T12:40:48.576Z,60.67
2023-03-27T12:43:19.586Z,61.26
2023-03-27T12:46:23.645Z,58.50
2023-03-27T12:49:00.294Z,57.21
2023-03-27T12:51:42.169Z,57.22
2023-03-27T12:54:27.176Z,56.80
2023-03-27T12:57:08.053Z,56.92
2023-03-27T12:59:46.861Z,57.92
2023-03-27T13:02:46.076Z,55.93
2023-03-27T13:05:37.789Z,55.24
2023-03-27T13:08:29.847Z,53.09
2023-03-27T13:11:29.836Z,52.53
2023-03-27T13:14:22.243Z,54.37
2023-03-27T13:17:20.994Z,54.20
2023-03-27T13:19:56.346Z,55.60
2023-03-27T13:22:40.488Z,52.69
2023-03-27T13:25:39.161Z,50.34
2023-03-27T13:28:24.648Z,49.48
2023-03-27T13:31:01.265Z,50.82
2023-03-27T13:34:10.762Z,50.20
2023-03-27T13:36:47.705Z,49.26
2023-03-27T13:39:22.097Z,48.03
2023-03-27T13:42:02.524Z,46.32
2023-03-27T13:44:36.364Z,44.99
2023-03-27T13:47:28.402Z,45.14
2023-03-27T13:50:21.584Z,46.32
2023-03-27T13:53:12.103Z,46.92
2023-03-27T13:56:15.735Z,47.08
2023-03-27T13:59:29.084Z,47.41
2023-03-27T14:02:35.811Z,49.00
2023-03-27T14:05:36.868Z,48.49
2023-03-27T14:08:19.587Z,50.06
2023-03-27T14:11:45.698Z,50.81
2023-03-27T14:14:48.832Z,51.89
2023-03-27T14:17:36.711Z,51.52
2023-03-27T14:20:15.051Z,51.44
2023-03-27T14:22:56.917Z,52.34
2023-03-27T14:25:34.286Z,55.78
2023-03-27T14:28:34.652Z,59.42
2023-03-27T14:31:07.344Z,60.55
2023-03-27T14:34:13.087Z,62.50
2023-03-27T14:36:42.410Z,63.15
2023-03-27T14:39:24.469Z,62.60
2023-03-27T14:42:02.361Z,61.47
2023-03-27T14:44:33.420Z,59.96
2023-03-27T14:47:11.845Z,58.48
2023-03-27T14:49:45.773Z,58.50
2023-03-27T14:52:33.196Z,57.25
2023-03-27T14:55:23.161Z,57.49
2023-03-27T14:58:11.105Z,55.77
2023-03-27T15:00:40.863Z,54.85
2023-03-27T15:03:17.420Z,54.08
2023-03-27T15:05:58.766Z,53.97
2023-03-27T15:08:36.718Z,53.45
2023-03-27T15:11:46.665Z,52.76
2023-03-27T15:14:26.489Z,54.13
2023-03-27T15:17:06.698Z,55.60
2023-03-27T15:19:45.341Z,57.08
2023-03-27T15:22:18.757Z,58.98
2023-03-27T15:24:58.273Z,58.80
2023-03-27T15:27:32.010Z,59.21
2023-03-27T15:30:03.475Z,59.27
2023-03-27T15:32:42.551Z,57.51
2023-03-27T15:35:15.138Z,58.10
2023-03-27T15:37:42.923Z,58.99
2023-03-27T15:40:22.425Z,58.88
2023-03-27T15:42:51.759Z,59.68
2023-03-27T15:45:23.655Z,58.33
2023-03-27T15:48:02.812Z,59.00
2023-03-27T15:50:29.398Z,58.50
2023-03-27T15:52:58.094Z,57.39
2023-03-27T15:55:47.248Z,57.83
2023-03-27T15:58:13.633Z,59.14
2023-03-27T16:00:48.959Z,59.47
2023-03-27T16:03:21.238Z,59.53
2023-03-27T16:05:50.003Z,60.36
2023-03-27T16:08:36.966Z,62.01
2023-03-27T16:11:05.057Z,61.95
2023-03-27T16:13:51.543Z,62.26
2023-03-27T16:16:27.016Z,61.79
2023-03-27T16:18:53.582Z,61.80
2023-03-27T16:21:26.285Z,60.78
2023-03-27T16:23:52.870Z,60.55
2023-03-27T16:26:28.139Z,62.08
2023-03-27T16:28:57.548Z,62.70
2023-03-27T16:31:24.106Z,62.97
2023-03-27T16:33:51.070Z,63.38
2023-03-27T16:36:29.594Z,61.41
2023-03-27T16:38:56.603Z,62.30
2023-03-27T16:41:23.270Z,61.57
2023-03-27T16:43:50.112Z,60.60
2023-03-27T16:46:21.899Z,59.41
2023-03-27T16:48:51.077Z,59.62
2023-03-27T16:51:19.039Z,59.65
2023-03-27T16:53:45.521Z,56.68
2023-03-27T16:56:12.417Z,53.01
2023-03-27T16:58:39.755Z,52.84
2023-03-27T17:01:07.998Z,53.83
2023-03-27T17:03:37.016Z,54.23
2023-03-27T17:06:08.529Z,50.40
2023-03-27T17:08:36.544Z,51.11
2023-03-27T17:11:08.644Z,54.01
2023-03-27T17:13:35.950Z,56.40
2023-03-27T17:16:03.051Z,59.09
2023-03-27T17:18:29.486Z,60.57
2023-03-27T17:20:55.907Z,61.67
2023-03-27T17:23:22.303Z,62.58
2023-03-27T17:25:49.165Z,63.42
2023-03-27T17:28:16.049Z,63.76
2023-03-27T17:30:56.597Z,63.97
2023-03-27T17:33:29.943Z,63.73
2023-03-27T17:35:59.379Z,64.14
2023-03-27T17:38:25.932Z,64.45
2023-03-27T17:40:52.407Z,64.95
2023-03-27T17:43:18.821Z,65.43
2023-03-27T17:45:45.376Z,65.65
2023-03-27T17:48:12.007Z,66.60
2023-03-27T17:50:39.218Z,66.60
2023-03-27T17:53:05.780Z,67.04
2023-03-27T17:55:32.468Z,67.51
2023-03-27T17:58:08.836Z,67.78
2023-03-27T18:00:37.707Z,68.41
2023-03-27T18:03:04.417Z,68.98
2023-03-27T18:05:30.958Z,69.24
2023-03-27T18:07:57.392Z,70.01
2023-03-27T18:10:24.288Z,71.16
2023-03-27T18:12:50.955Z,71.42
2023-03-27T18:15:17.353Z,72.39
2023-03-27T18:17:43.795Z,72.30
2023-03-27T18:20:10.331Z,72.71
2023-03-27T18:22:37.873Z,73.02
2023-03-27T18:25:06.790Z,73.87
2023-03-27T18:27:33.219Z,74.09
2023-03-27T18:29:59.725Z,74.41
2023-03-27T18:32:26.172Z,74.84
2023-03-27T18:34:52.712Z,75.70
2023-03-27T18:37:19.129Z,76.12
2023-03-27T18:39:46.654Z,76.32
2023-03-27T18:42:13.520Z,76.74
2023-03-27T18:44:41.394Z,77.20
2023-03-27T18:47:08.117Z,78.05
2023-03-27T18:49:34.550Z,77.70
2023-03-27T18:52:01.305Z,78.10
2023-03-27T18:54:28.139Z,78.83
2023-03-27T18:56:54.616Z,78.75
2023-03-27T18:59:22.606Z,78.61
2023-03-27T19:01:49.234Z,79.38
2023-03-27T19:04:17.266Z,79.30
2023-03-27T19:06:43.945Z,79.91
2023-03-27T19:09:10.346Z,79.43
2023-03-27T19:11:36.974Z,80.03
2023-03-27T19:14:06.645Z,80.26
2023-03-27T19:16:37.048Z,80.44
2023-03-27T19:19:35.401Z,81.52
2023-03-27T19:22:22.991Z,81.91
2023-03-27T19:24:59.739Z,81.80
2023-03-27T19:27:27.578Z,82.33
2023-03-27T19:30:07.346Z,82.56
2023-03-27T19:32:33.871Z,82.99
2023-03-27T19:35:01.692Z,82.18
2023-03-27T19:37:29.630Z,82.40
2023-03-27T19:39:56.379Z,83.09
2023-03-27T19:42:22.854Z,82.63
2023-03-27T19:44:49.281Z,83.03
2023-03-27T19:47:15.802Z,83.18
2023-03-27T19:49:42.616Z,82.90
2023-03-27T19:52:29.900Z,83.04
2023-03-27T19:54:56.433Z,83.50
2023-03-27T19:57:23.923Z,83.25
2023-03-27T19:59:50.916Z,83.76
2023-03-27T20:02:17.397Z,83.81
2023-03-27T20:04:43.940Z,83.42
2023-03-27T20:07:11.254Z,83.99
2023-03-27T20:09:37.688Z,83.65
2023-03-27T20:12:05.806Z,83.82
2023-03-27T20:14:32.499Z,83.78
2023-03-27T20:16:58.988Z,84.39
2023-03-27T20:19:28.533Z,84.32
2023-03-27T20:21:57.645Z,84.68
2023-03-27T20:24:24.492Z,85.22
2023-03-27T20:26:57.024Z,86.09
2023-03-27T20:29:25.266Z,86.40
2023-03-27T20:31:51.976Z,86.64
2023-03-27T20:34:19.512Z,86.37
2023-03-27T20:36:46.428Z,86.64
2023-03-27T20:39:30.877Z,86.87
2023-03-27T20:41:58.962Z,87.82
2023-03-27T20:44:35.563Z,87.86
2023-03-27T20:47:11.168Z,88.08
2023-03-27T20:49:44.640Z,88.57
2023-03-27T20:52:14.136Z,88.72
2023-03-27T20:54:41.217Z,88.49
2023-03-27T20:57:11.096Z,88.47
2023-03-27T20:59:37.823Z,87.96
2023-03-27T21:02:04.954Z,87.97
2023-03-27T21:04:31.769Z,88.19
2023-03-27T21:06:58.909Z,88.07
2023-03-27T21:09:26.344Z,87.71
2023-03-27T21:11:55.011Z,87.81
2023-03-27T21:14:21.774Z,87.70
2023-03-27T21:16:48.214Z,88.20
2023-03-27T21:19:14.640Z,87.43
2023-03-27T21:21:41.284Z,87.77
2023-03-27T21:24:07.919Z,87.92
2023-03-27T21:26:35.242Z,87.17
2023-03-27T21:29:03.257Z,87.60
2023-03-27T21:31:29.924Z,86.98
2023-03-27T21:33:56.593Z,87.34
2023-03-27T21:36:23.301Z,86.71
2023-03-27T21:38:50.387Z,86.83
2023-03-27T21:41:17.229Z,86.90
2023-03-27T21:43:43.987Z,87.87
2023-03-27T21:46:10.579Z,87.83
2023-03-27T21:48:37.407Z,88.14
2023-03-27T21:51:06.046Z,88.38
2023-03-27T21:53:32.644Z,88.37
2023-03-27T21:55:59.443Z,88.52
2023-03-27T21:58:26.720Z,88.68
2023-03-27T22:00:57.071Z,88.77
2023-03-27T22:03:24.941Z,88.48
2023-03-27T22:06:07.786Z,88.74
2023-03-27T22:08:38.785Z,88.82
2023-03-27T22:11:05.930Z,88.83
2023-03-27T22:13:34.595Z,88.64
2023-03-27T22:16:01.498Z,87.99
2023-03-27T22:18:30.474Z,87.98
2023-03-27T22:20:56.850Z,87.98
2023-03-27T22:23:23.282Z,88.06
2023-03-27T22:25:53.984Z,87.37
2023-03-27T22:28:20.488Z,87.51
2023-03-27T22:30:46.875Z,87.72
2023-03-27T22:33:13.291Z,88.48
2023-03-27T22:35:39.764Z,88.28
2023-03-27T22:38:06.295Z,88.23
2023-03-27T22:40:32.714Z,88.40
2023-03-27T22:42:59.108Z,87.54
2023-03-27T22:45:25.622Z,87.49
2023-03-27T22:47:52.063Z,87.81
2023-03-27T22:50:18.484Z,88.13
2023-03-27T22:52:44.856Z,88.53
2023-03-27T22:55:11.320Z,88.13
2023-03-27T22:57:37.962Z,88.35
2023-03-27T23:00:06.226Z,89.07
2023-03-27T23:02:32.698Z,88.30
2023-03-27T23:04:59.144Z,88.10
2023-03-27T23:07:25.630Z,87.86
2023-03-27T23:09:52.071Z,88.66
2023-03-27T23:12:18.513Z,88.10
2023-03-27T23:14:44.895Z,87.90
2023-03-27T23:17:11.328Z,88.39
2023-03-27T23:19:37.735Z,88.33
2023-03-27T23:22:04.197Z,88.10
2023-03-27T23:24:31.005Z,88.49
2023-03-27T23:26:57.408Z,88.63
2023-03-27T23:29:23.802Z,88.48
2023-03-27T23:31:50.216Z,88.88
2023-03-27T23:34:16.755Z,88.78
2023-03-27T23:36:43.173Z,88.05
2023-03-27T23:39:09.536Z,88.91
2023-03-27T23:41:35.973Z,88.82
2023-03-27T23:44:02.371Z,89.20
2023-03-27T23:46:28.943Z,88.13
2023-03-27T23:48:55.606Z,89.21
2023-03-27T23:51:22.132Z,89.03
2023-03-27T23:53:48.516Z,88.35
2023-03-27T23:56:15.096Z,88.61
2023-03-27T23:58:41.549Z,88.50
